sensor_id;sensor_type;location;lat;lon;timestamp;temperature;humidity
6462;DHT22;3264;42.862;25.098;2022-09-27T00:01:15;14.90;99.90
6462;DHT22;3264;42.862;25.098;2022-09-27T00:03:44;15.00;99.90
6462;DHT22;3264;42.862;25.098;2022-09-27T00:06:14;14.80;99.90
6462;DHT22;3264;42.862;25.098;2022-09-27T00:08:42;14.90;99.90
6462;DHT22;3264;42.862;25.098;2022-09-27T00:11:14;15.00;99.90
6462;DHT22;3264;42.862;25.098;2022-09-27T00:13:44;15.00;99.90
6462;DHT22;3264;42.862;25.098;2022-09-27T00:16:14;15.00;99.90
6462;DHT22;3264;42.862;25.098;2022-09-27T00:18:43;15.00;99.90
6462;DHT22;3264;42.862;25.098;2022-09-27T00:21:12;15.00;99.90
6462;DHT22;3264;42.862;25.098;2022-09-27T00:23:41;15.00;99.90
6462;DHT22;3264;42.862;25.098;2022-09-27T00:26:11;14.90;99.90
6462;DHT22;3264;42.862;25.098;2022-09-27T00:28:41;14.90;99.90
6462;DHT22;3264;42.862;25.098;2022-09-27T00:49:18;14.80;99.90
6462;DHT22;3264;42.862;25.098;2022-09-27T00:51:49;14.90;99.90
6462;DHT22;3264;42.862;25.098;2022-09-27T00:54:21;14.80;99.90
6462;DHT22;3264;42.862;25.098;2022-09-27T00:56:52;14.80;99.90
6462;DHT22;3264;42.862;25.098;2022-09-27T00:59:25;14.70;99.90
6462;DHT22;3264;42.862;25.098;2022-09-27T01:01:54;14.70;99.90
6462;DHT22;3264;42.862;25.098;2022-09-27T01:07:46;14.80;99.90
6462;DHT22;3264;42.862;25.098;2022-09-27T01:10:15;14.70;99.90
6462;DHT22;3264;42.862;25.098;2022-09-27T01:12:57;14.80;99.90
6462;DHT22;3264;42.862;25.098;2022-09-27T01:15:31;14.70;99.90
6462;DHT22;3264;42.862;25.098;2022-09-27T01:18:14;14.70;99.90
6462;DHT22;3264;42.862;25.098;2022-09-27T01:27:36;14.80;99.90
6462;DHT22;3264;42.862;25.098;2022-09-27T01:30:47;14.80;99.90
6462;DHT22;3264;42.862;25.098;2022-09-27T01:40:00;14.80;99.90
6462;DHT22;3264;42.862;25.098;2022-09-27T01:42:33;14.80;99.90
6462;DHT22;3264;42.862;25.098;2022-09-27T01:45:08;14.90;99.90
6462;DHT22;3264;42.862;25.098;2022-09-27T01:47:41;14.80;99.90
6462;DHT22;3264;42.862;25.098;2022-09-27T01:50:15;14.80;99.90
6462;DHT22;3264;42.862;25.098;2022-09-27T01:52:48;14.70;99.90
6462;DHT22;3264;42.862;25.098;2022-09-27T01:55:20;14.70;99.90
6462;DHT22;3264;42.862;25.098;2022-09-27T01:58:01;14.70;99.90
6462;DHT22;3264;42.862;25.098;2022-09-27T02:00:37;14.70;99.90
6462;DHT22;3264;42.862;25.098;2022-09-27T02:03:12;14.70;99.90
6462;DHT22;3264;42.862;25.098;2022-09-27T02:05:43;14.70;99.90
6462;DHT22;3264;42.862;25.098;2022-09-27T02:08:16;14.70;99.90
6462;DHT22;3264;42.862;25.098;2022-09-27T02:10:48;14.70;99.90
6462;DHT22;3264;42.862;25.098;2022-09-27T02:13:22;14.70;99.90
6462;DHT22;3264;42.862;25.098;2022-09-27T02:15:56;14.70;99.90
6462;DHT22;3264;42.862;25.098;2022-09-27T02:18:32;14.70;99.90
6462;DHT22;3264;42.862;25.098;2022-09-27T02:21:05;14.80;99.90
6462;DHT22;3264;42.862;25.098;2022-09-27T02:23:49;14.80;99.90
6462;DHT22;3264;42.862;25.098;2022-09-27T02:29:44;14.80;99.90
6462;DHT22;3264;42.862;25.098;2022-09-27T02:32:13;14.80;99.90
6462;DHT22;3264;42.862;25.098;2022-09-27T02:34:44;14.80;99.90
6462;DHT22;3264;42.862;25.098;2022-09-27T02:37:25;14.80;99.90
6462;DHT22;3264;42.862;25.098;2022-09-27T02:39:54;14.80;99.90
6462;DHT22;3264;42.862;25.098;2022-09-27T02:42:22;14.80;99.90
6462;DHT22;3264;42.862;25.098;2022-09-27T02:44:51;14.70;99.90
6462;DHT22;3264;42.862;25.098;2022-09-27T02:47:32;14.80;99.90
6462;DHT22;3264;42.862;25.098;2022-09-27T02:50:22;14.70;99.90
6462;DHT22;3264;42.862;25.098;2022-09-27T02:52:58;14.70;99.90
6462;DHT22;3264;42.862;25.098;2022-09-27T02:55:42;14.70;99.90
6462;DHT22;3264;42.862;25.098;2022-09-27T02:58:23;14.70;99.90
6462;DHT22;3264;42.862;25.098;2022-09-27T03:01:00;14.70;99.90
6462;DHT22;3264;42.862;25.098;2022-09-27T03:04:06;14.60;99.90
6462;DHT22;3264;42.862;25.098;2022-09-27T03:06:50;14.70;99.90
6462;DHT22;3264;42.862;25.098;2022-09-27T03:13:10;14.80;99.90
6462;DHT22;3264;42.862;25.098;2022-09-27T03:15:38;14.80;99.90
6462;DHT22;3264;42.862;25.098;2022-09-27T03:18:06;14.80;99.90
6462;DHT22;3264;42.862;25.098;2022-09-27T03:20:44;14.70;99.90
6462;DHT22;3264;42.862;25.098;2022-09-27T03:23:22;14.90;99.90
6462;DHT22;3264;42.862;25.098;2022-09-27T03:25:52;14.90;99.90
6462;DHT22;3264;42.862;25.098;2022-09-27T03:28:21;14.70;99.90
6462;DHT22;3264;42.862;25.098;2022-09-27T03:30:51;14.70;99.90
6462;DHT22;3264;42.862;25.098;2022-09-27T03:33:19;14.70;99.90
6462;DHT22;3264;42.862;25.098;2022-09-27T03:35:47;14.70;99.90
6462;DHT22;3264;42.862;25.098;2022-09-27T03:38:15;14.60;99.90
6462;DHT22;3264;42.862;25.098;2022-09-27T03:40:45;14.50;99.90
6462;DHT22;3264;42.862;25.098;2022-09-27T03:43:46;14.50;99.90
6462;DHT22;3264;42.862;25.098;2022-09-27T03:46:15;14.60;99.90
6462;DHT22;3264;42.862;25.098;2022-09-27T03:48:44;14.50;99.90
6462;DHT22;3264;42.862;25.098;2022-09-27T03:51:12;14.60;99.90
6462;DHT22;3264;42.862;25.098;2022-09-27T03:53:40;14.60;99.90
6462;DHT22;3264;42.862;25.098;2022-09-27T03:56:10;14.70;99.90
6462;DHT22;3264;42.862;25.098;2022-09-27T03:58:39;14.60;99.90
6462;DHT22;3264;42.862;25.098;2022-09-27T04:01:07;14.60;99.90
6462;DHT22;3264;42.862;25.098;2022-09-27T04:03:35;14.60;99.90
6462;DHT22;3264;42.862;25.098;2022-09-27T04:06:06;14.60;99.90
6462;DHT22;3264;42.862;25.098;2022-09-27T04:08:40;14.60;99.90
6462;DHT22;3264;42.862;25.098;2022-09-27T04:11:10;14.70;99.90
6462;DHT22;3264;42.862;25.098;2022-09-27T04:13:53;14.60;99.90
6462;DHT22;3264;42.862;25.098;2022-09-27T04:16:24;14.50;99.90
6462;DHT22;3264;42.862;25.098;2022-09-27T04:18:54;14.50;99.90
6462;DHT22;3264;42.862;25.098;2022-09-27T04:25:10;14.40;99.90
6462;DHT22;3264;42.862;25.098;2022-09-27T04:27:43;14.40;99.90
6462;DHT22;3264;42.862;25.098;2022-09-27T04:30:12;14.40;99.90
6462;DHT22;3264;42.862;25.098;2022-09-27T04:32:41;14.40;99.90
6462;DHT22;3264;42.862;25.098;2022-09-27T04:35:09;14.40;99.90
6462;DHT22;3264;42.862;25.098;2022-09-27T04:38:10;14.40;99.90
6462;DHT22;3264;42.862;25.098;2022-09-27T04:40:39;14.50;99.90
6462;DHT22;3264;42.862;25.098;2022-09-27T04:43:10;14.50;99.90
6462;DHT22;3264;42.862;25.098;2022-09-27T04:45:38;14.50;99.90
6462;DHT22;3264;42.862;25.098;2022-09-27T04:48:07;14.60;99.90
6462;DHT22;3264;42.862;25.098;2022-09-27T04:50:35;14.70;99.90
6462;DHT22;3264;42.862;25.098;2022-09-27T04:53:03;14.70;99.90
6462;DHT22;3264;42.862;25.098;2022-09-27T04:55:32;14.70;99.90
6462;DHT22;3264;42.862;25.098;2022-09-27T04:58:23;14.80;99.90
6462;DHT22;3264;42.862;25.098;2022-09-27T05:00:51;14.70;99.90
6462;DHT22;3264;42.862;25.098;2022-09-27T05:03:20;14.70;99.90
6462;DHT22;3264;42.862;25.098;2022-09-27T05:12:06;14.90;99.90
6462;DHT22;3264;42.862;25.098;2022-09-27T05:14:36;14.90;99.90
6462;DHT22;3264;42.862;25.098;2022-09-27T05:17:04;15.00;99.90
6462;DHT22;3264;42.862;25.098;2022-09-27T05:19:33;15.00;99.90
6462;DHT22;3264;42.862;25.098;2022-09-27T05:22:01;15.10;99.90
6462;DHT22;3264;42.862;25.098;2022-09-27T05:27:53;15.30;99.90
6462;DHT22;3264;42.862;25.098;2022-09-27T05:30:47;15.40;99.90
6462;DHT22;3264;42.862;25.098;2022-09-27T05:33:18;15.40;99.90
6462;DHT22;3264;42.862;25.098;2022-09-27T05:35:53;15.30;99.90
6462;DHT22;3264;42.862;25.098;2022-09-27T05:38:23;15.20;99.90
6462;DHT22;3264;42.862;25.098;2022-09-27T05:40:51;15.20;99.90
6462;DHT22;3264;42.862;25.098;2022-09-27T05:43:19;15.10;99.90
6462;DHT22;3264;42.862;25.098;2022-09-27T05:45:49;15.10;99.90
6462;DHT22;3264;42.862;25.098;2022-09-27T05:48:19;15.20;99.90
6462;DHT22;3264;42.862;25.098;2022-09-27T05:50:47;15.20;99.90
6462;DHT22;3264;42.862;25.098;2022-09-27T05:53:16;15.30;99.90
6462;DHT22;3264;42.862;25.098;2022-09-27T05:55:44;15.40;99.90
6462;DHT22;3264;42.862;25.098;2022-09-27T05:58:12;15.30;99.90
6462;DHT22;3264;42.862;25.098;2022-09-27T06:01:16;15.50;99.90
6462;DHT22;3264;42.862;25.098;2022-09-27T06:04:02;15.40;99.90
6462;DHT22;3264;42.862;25.098;2022-09-27T06:09:47;15.60;99.90
6462;DHT22;3264;42.862;25.098;2022-09-27T06:12:15;15.70;99.90
6462;DHT22;3264;42.862;25.098;2022-09-27T06:14:45;15.70;99.90
6462;DHT22;3264;42.862;25.098;2022-09-27T06:17:14;15.90;99.90
6462;DHT22;3264;42.862;25.098;2022-09-27T06:19:43;15.80;99.90
6462;DHT22;3264;42.862;25.098;2022-09-27T06:22:12;15.70;99.90
6462;DHT22;3264;42.862;25.098;2022-09-27T06:24:40;15.80;99.90
6462;DHT22;3264;42.862;25.098;2022-09-27T06:27:14;15.70;99.90
6462;DHT22;3264;42.862;25.098;2022-09-27T06:29:42;15.90;99.90
6462;DHT22;3264;42.862;25.098;2022-09-27T06:32:12;16.10;99.90
6462;DHT22;3264;42.862;25.098;2022-09-27T06:34:42;16.10;99.90
6462;DHT22;3264;42.862;25.098;2022-09-27T06:37:10;16.30;99.90
6462;DHT22;3264;42.862;25.098;2022-09-27T06:39:38;16.40;99.90
6462;DHT22;3264;42.862;25.098;2022-09-27T06:45:44;16.40;99.90
6462;DHT22;3264;42.862;25.098;2022-09-27T06:48:14;16.30;99.90
6462;DHT22;3264;42.862;25.098;2022-09-27T06:50:46;16.40;99.90
6462;DHT22;3264;42.862;25.098;2022-09-27T07:06:29;16.40;99.90
6462;DHT22;3264;42.862;25.098;2022-09-27T07:08:57;16.50;99.90
6462;DHT22;3264;42.862;25.098;2022-09-27T07:11:26;16.60;99.90
6462;DHT22;3264;42.862;25.098;2022-09-27T07:13:56;16.40;99.90
6462;DHT22;3264;42.862;25.098;2022-09-27T07:16:23;16.50;99.90
6462;DHT22;3264;42.862;25.098;2022-09-27T07:18:52;16.40;99.90
6462;DHT22;3264;42.862;25.098;2022-09-27T07:21:21;16.40;99.90
6462;DHT22;3264;42.862;25.098;2022-09-27T07:23:50;16.40;99.90
6462;DHT22;3264;42.862;25.098;2022-09-27T07:26:19;16.50;99.90
6462;DHT22;3264;42.862;25.098;2022-09-27T07:28:48;16.60;99.90
6462;DHT22;3264;42.862;25.098;2022-09-27T07:31:19;16.60;99.90
6462;DHT22;3264;42.862;25.098;2022-09-27T07:33:47;16.50;99.90
6462;DHT22;3264;42.862;25.098;2022-09-27T07:36:14;16.60;99.90
6462;DHT22;3264;42.862;25.098;2022-09-27T07:38:44;16.60;99.90
6462;DHT22;3264;42.862;25.098;2022-09-27T07:41:14;16.60;99.90
6462;DHT22;3264;42.862;25.098;2022-09-27T07:43:42;16.60;99.90
6462;DHT22;3264;42.862;25.098;2022-09-27T07:46:29;16.70;99.90
6462;DHT22;3264;42.862;25.098;2022-09-27T07:48:58;16.90;99.90
6462;DHT22;3264;42.862;25.098;2022-09-27T07:54:49;16.90;99.90
6462;DHT22;3264;42.862;25.098;2022-09-27T07:57:21;17.00;99.90
6462;DHT22;3264;42.862;25.098;2022-09-27T07:59:49;17.00;99.90
6462;DHT22;3264;42.862;25.098;2022-09-27T08:02:48;17.20;99.90
6462;DHT22;3264;42.862;25.098;2022-09-27T08:05:16;17.00;99.90
6462;DHT22;3264;42.862;25.098;2022-09-27T08:07:43;17.00;99.90
6462;DHT22;3264;42.862;25.098;2022-09-27T08:10:11;17.10;99.90
6462;DHT22;3264;42.862;25.098;2022-09-27T08:12:42;17.20;99.90
6462;DHT22;3264;42.862;25.098;2022-09-27T08:15:11;17.20;99.90
6462;DHT22;3264;42.862;25.098;2022-09-27T08:24:24;17.00;99.90
6462;DHT22;3264;42.862;25.098;2022-09-27T08:26:51;17.30;99.90
6462;DHT22;3264;42.862;25.098;2022-09-27T08:29:21;17.40;99.90
6462;DHT22;3264;42.862;25.098;2022-09-27T08:31:50;17.50;99.90
6462;DHT22;3264;42.862;25.098;2022-09-27T08:34:46;17.50;99.90
6462;DHT22;3264;42.862;25.098;2022-09-27T08:37:15;17.50;99.90
6462;DHT22;3264;42.862;25.098;2022-09-27T08:39:42;17.70;99.90
6462;DHT22;3264;42.862;25.098;2022-09-27T08:42:45;17.80;99.90
6462;DHT22;3264;42.862;25.098;2022-09-27T08:45:27;17.70;99.90
6462;DHT22;3264;42.862;25.098;2022-09-27T08:48:14;17.50;99.90
6462;DHT22;3264;42.862;25.098;2022-09-27T08:50:58;18.00;99.90
6462;DHT22;3264;42.862;25.098;2022-09-27T08:54:04;18.20;99.90
6462;DHT22;3264;42.862;25.098;2022-09-27T08:56:33;18.40;99.90
6462;DHT22;3264;42.862;25.098;2022-09-27T08:59:06;18.20;99.90
6462;DHT22;3264;42.862;25.098;2022-09-27T09:01:39;18.60;99.90
6462;DHT22;3264;42.862;25.098;2022-09-27T09:29:22;21.30;99.90
6462;DHT22;3264;42.862;25.098;2022-09-27T09:31:59;21.80;99.90
6462;DHT22;3264;42.862;25.098;2022-09-27T09:37:55;22.80;99.90
6462;DHT22;3264;42.862;25.098;2022-09-27T09:40:26;22.50;99.90
6462;DHT22;3264;42.862;25.098;2022-09-27T09:43:46;22.40;99.90
6462;DHT22;3264;42.862;25.098;2022-09-27T09:46:21;22.50;99.90
6462;DHT22;3264;42.862;25.098;2022-09-27T09:48:54;21.90;99.90
6462;DHT22;3264;42.862;25.098;2022-09-27T09:51:31;22.10;99.90
6462;DHT22;3264;42.862;25.098;2022-09-27T09:54:05;22.50;99.90
6462;DHT22;3264;42.862;25.098;2022-09-27T09:56:38;22.10;99.90
6462;DHT22;3264;42.862;25.098;2022-09-27T09:59:11;21.90;99.90
6462;DHT22;3264;42.862;25.098;2022-09-27T10:01:44;21.90;99.90
6462;DHT22;3264;42.862;25.098;2022-09-27T10:04:43;21.90;99.90
6462;DHT22;3264;42.862;25.098;2022-09-27T10:07:11;22.20;99.90
6462;DHT22;3264;42.862;25.098;2022-09-27T10:09:39;23.00;99.90
